Data for 12/06/2008

Time Sea-Level Adjusted Pressure Absolute Pressure Temperature Relative Humidity Dew Point   
(mb) (inHg) (mb) (inHg) (C) (F) (%) (C) (F)
00:05 1021 30.15 850 25.1 0.8 33.5 94 0 32
00:10 1021 30.15 850 25.1 0.9 33.5 94 0 32
00:15 1021 30.15 850 25.1 0.8 33.5 94 0 32
00:20 1021 30.15 850 25.1 0.9 33.7 94 0.1 32.2
00:25 1021 30.15 850 25.1 1.2 34.1 93 0.1 32.2
00:30 1021 30.15 850 25.1 1.2 34.2 93 0.2 32.3
00:35 1021 30.15 850 25.1 1.1 34 94 0.2 32.3
00:40 1021 30.15 850 25.1 1 33.8 94 0.2 32.3
00:45 1021 30.15 850 25.1 1 33.9 93 0.1 32.2
00:50 1021 30.15 850 25.1 1.2 34.1 93 0.1 32.2
00:55 1021 30.15 850 25.1 1.3 34.3 91 0 32
01:00 1021 30.15 850 25.1 1.5 34.7 90 0.1 32.2
01:05 1021 30.15 850 25.1 1.5 34.6 90 0.1 32.1
01:10 1021 30.15 850 25.1 1.5 34.8 89 -0.1 31.9
01:15 1021 30.15 850 25.1 1.6 34.9 90 0.2 32.3
01:20 1021 30.15 850 25.1 1.5 34.7 91 0.2 32.4
01:25 1021 30.15 850 25.1 1.4 34.5 92 0.2 32.4
01:30 1021 30.15 850 25.1 1.3 34.3 92 0.1 32.2
01:35 1021 30.15 850 25.1 0.8 33.5 94 -0.1 31.8
01:40 1021 30.15 850 25.1 0.3 32.5 96 -0.3 31.4
01:45 1021 30.15 850 25.1 0.3 32.5 96 -0.3 31.5
01:50 1021 30.15 850 25.1 0.5 32.9 95 -0.2 31.6
01:55 1021 30.15 850 25.1 0.9 33.6 94 -0 32
02:00 1020 30.12 850 25.1 1.2 34.2 92 0 32
02:05 1021 30.15 850 25.1 1.4 34.5 91 0.1 32.3
02:10 1020 30.12 850 25.1 1.4 34.5 90 -0 32
02:15 1020 30.12 850 25.1 1.5 34.7 90 0 32.1
02:20 1021 30.15 850 25.1 1.6 34.8 89 -0 32
02:25 1020 30.12 850 25.1 1.9 35.4 88 0.1 32.2
02:30 1020 30.12 850 25.1 2 35.5 89 0.3 32.6
02:35 1020 30.12 850 25.1 1.8 35.2 89 0.1 32.3
02:40 1020 30.12 850 25.1 1.8 35.3 89 0.1 32.3
02:45 1020 30.12 850 25.1 1.8 35.3 88 0.1 32.2
02:50 1020 30.12 850 25.1 1.8 35.3 88 0.1 32.1
02:55 1020 30.12 850 25.1 2 35.5 88 0.2 32.3
03:00 1020 30.12 849 25.07 1.9 35.4 88 0.2 32.3
03:05 1020 30.12 850 25.1 1.9 35.4 88 0.2 32.3
03:10 1020 30.12 850 25.1 1.9 35.5 88 0.2 32.4
03:15 1020 30.12 849 25.07 2 35.5 88 0.2 32.4
03:20 1020 30.12 849 25.07 2 35.6 87 0.2 32.3
03:25 1020 30.12 849 25.07 2.1 35.8 86 0 32
03:30 1020 30.12 850 25.1 1.8 35.2 90 0.3 32.5
03:35 1020 30.12 850 25.1 1 33.9 91 -0.2 31.6
03:40 1020 30.12 849 25.07 1 33.7 90 -0.5 31.2
03:45 1020 30.12 850 25.1 0.9 33.5 92 -0.3 31.4
03:50 1020 30.12 850 25.1 0.7 33.2 93 -0.4 31.4
03:55 1020 30.12 850 25.1 0.8 33.5 93 -0.3 31.5
04:00 1020 30.12 850 25.1 0.9 33.7 92 -0.2 31.6
04:05 1020 30.12 850 25.1 1 33.8 91 -0.2 31.6
04:10 1020 30.12 850 25.1 1 33.8 92 -0.2 31.7
04:15 1020 30.12 850 25.1 1.1 33.9 91 -0.2 31.6
04:20 1020 30.12 849 25.07 1 33.8 91 -0.3 31.5
04:25 1020 30.12 850 25.1 0.9 33.6 92 -0.2 31.6
04:30 1020 30.12 850 25.1 0.7 33.3 93 -0.3 31.4
04:35 1020 30.12 850 25.1 0.7 33.2 93 -0.3 31.4
04:40 1020 30.12 850 25.1 0.7 33.3 93 -0.3 31.4
04:45 1020 30.12 850 25.1 0.7 33.3 93 -0.2 31.6
04:50 1020 30.12 850 25.1 0.7 33.3 94 -0.2 31.6
04:55 1021 30.15 850 25.1 0.7 33.3 94 -0.2 31.7
05:00 1021 30.15 850 25.1 0.7 33.2 94 -0.1 31.8
05:05 1021 30.15 850 25.1 0.6 33.1 95 -0.1 31.8
05:10 1020 30.12 850 25.1 0.5 33 95 -0.2 31.7
05:15 1020 30.12 850 25.1 0.7 33.2 94 -0.2 31.6
05:20 1020 30.12 850 25.1 0.8 33.5 94 -0.1 31.9
05:25 1020 30.12 850 25.1 0.7 33.3 95 -0.1 31.9
05:30 1020 30.12 850 25.1 0.6 33.1 95 -0.1 31.9
05:35 1020 30.12 850 25.1 0.7 33.2 95 -0.1 31.9
05:40 1020 30.12 850 25.1 1 33.7 93 -0 32
05:45 1020 30.12 849 25.07 1.2 34.2 92 0.1 32.1
05:50 1020 30.12 850 25.1 1.2 34.1 93 0.2 32.4
05:55 1020 30.12 850 25.1 0.9 33.6 94 0 32
06:00 1020 30.12 850 25.1 0.9 33.7 94 0 32.1
06:05 1020 30.12 850 25.1 1 33.8 93 -0 32
06:10 1020 30.12 850 25.1 1.1 34 92 0 32
06:15 1020 30.12 850 25.1 1.1 34 93 0.1 32.1
06:20 1020 30.12 850 25.1 1.1 33.9 93 0.1 32.1
06:25 1020 30.12 850 25.1 1.5 34.8 89 -0 31.9
06:30 1020 30.12 850 25.1 1.8 35.3 87 -0 32
06:35 1020 30.12 850 25.1 2.1 35.7 88 0.2 32.4
06:40 1020 30.12 850 25.1 1.9 35.4 89 0.2 32.4
06:45 1020 30.12 850 25.1 1.6 34.9 91 0.2 32.4
06:50 1020 30.12 850 25.1 1.3 34.3 91 -0 32
06:55 1020 30.12 850 25.1 1.3 34.3 91 -0.1 31.8
07:00 1020 30.12 850 25.1 1.5 34.7 89 -0.1 31.7
07:05 1020 30.12 850 25.1 1.7 35.1 88 -0.1 31.8
07:10 1020 30.12 850 25.1 1.8 35.3 88 0 32
07:15 1020 30.12 850 25.1 1.7 35.1 89 0.2 32.3
07:20 1020 30.12 850 25.1 1.5 34.8 89 -0 31.9
07:25 1020 30.12 850 25.1 1.6 35 88 -0.1 31.8
07:30 1020 30.12 850 25.1 1.8 35.3 88 0 32.1
07:35 1020 30.12 850 25.1 1.8 35.2 89 0.2 32.3
07:40 1020 30.12 849 25.07 1.6 34.9 90 0.1 32.2
07:45 1020 30.12 849 25.07 1.6 34.9 90 0.1 32.2
07:50 1020 30.12 850 25.1 1.7 35 89 0.1 32.1
07:55 1020 30.12 850 25.1 1.8 35.3 89 0.2 32.3
08:00 1020 30.12 850 25.1 2 35.6 88 0.2 32.4
08:05 1020 30.12 850 25.1 2.1 35.8 87 0.1 32.2
08:10 1020 30.12 850 25.1 2.2 36 87 0.3 32.5
08:15 1020 30.12 850 25.1 2.4 36.3 86 0.3 32.5
08:20 1021 30.15 850 25.1 2.5 36.6 85 0.3 32.5
08:25 1021 30.15 850 25.1 2.7 36.8 85 0.5 32.8
08:30 1021 30.15 850 25.1 2.6 36.6 87 0.6 33
08:35 1020 30.12 850 25.1 2.4 36.3 88 0.6 33
08:40 1021 30.15 850 25.1 2.1 35.8 89 0.6 33
08:45 1021 30.15 850 25.1 2.1 35.7 89 0.5 32.9
08:50 1021 30.15 850 25.1 2.3 36.2 89 0.6 33.1
08:55 1021 30.15 850 25.1 2.4 36.3 89 0.7 33.3
09:00 1021 30.15 850 25.1 2.5 36.5 79 -0.8 30.6
09:05 1021 30.15 850 25.1 3.2 37.8 84 0.7 33.3
09:10 1021 30.15 850 25.1 3 37.3 85 0.7 33.3
09:15 1021 30.15 850 25.1 2.6 36.7 88 0.9 33.5
09:20 1021 30.15 850 25.1 2.3 36.1 87 0.4 32.7
09:25 1020 30.12 850 25.1 2.7 36.9 87 0.7 33.3
09:30 1020 30.12 850 25.1 2.8 37.1 87 0.9 33.6
09:35 1020 30.12 849 25.07 2.8 37.1 85 0.6 33
09:40 1020 30.12 849 25.07 2.9 37.3 85 0.6 33.1
09:45 1020 30.12 849 25.07 2.9 37.3 84 0.4 32.8
09:50 1020 30.12 849 25.07 3.3 37.9 83 0.7 33.3
09:55 1020 30.12 849 25.07 3.3 37.9 83 0.6 33.1
10:00 1020 30.12 849 25.07 3.3 38 81 0.4 32.8
10:05 1020 30.12 849 25.07 3.5 38.4 81 0.6 33.1
10:10 1020 30.12 849 25.07 3.5 38.3 81 0.6 33.1
10:15 1020 30.12 849 25.07 3.4 38.1 83 0.7 33.2
10:20 1020 30.12 849 25.07 3.3 37.9 83 0.7 33.2
10:25 1020 30.12 849 25.07 3.5 38.3 79 0.2 32.4
10:30 1020 30.12 849 25.07 3.7 38.7 81 0.8 33.4
10:35 1020 30.12 849 25.07 3.9 39 73 -0.4 31.2
10:40 1020 30.12 849 25.07 4.6 40.2 69 -0.6 30.9
10:45 1020 30.12 849 25.07 4.8 40.7 75 0.8 33.4
10:50 1020 30.12 849 25.07 4.6 40.2 78 1 33.8
10:55 1020 30.12 849 25.07 4.1 39.4 81 1 33.9
11:00 1020 30.12 849 25.07 3.9 39 78 0.3 32.6
11:05 1020 30.12 849 25.07 4.2 39.6 73 -0.3 31.5
11:10 1020 30.12 849 25.07 4.6 40.3 71 -0.2 31.7
11:15 1020 30.12 849 25.07 5.1 41.1 67 -0.6 30.9
11:20 1020 30.12 849 25.07 5.2 41.3 65 -0.9 30.4
11:25 1020 30.12 849 25.07 5.2 41.3 64 -1.1 30.1
11:30 1019 30.09 849 25.07 5.4 41.7 62 -1.2 29.8
11:35 1019 30.09 849 25.07 5.5 41.9 63 -1.1 30
11:40 1019 30.09 849 25.07 5.8 42.4 60 -1.3 29.6
11:45 1019 30.09 849 25.07 6.1 42.9 61 -0.9 30.3
11:50 1019 30.09 848 25.04 6.2 43.1 58 -1.4 29.4
11:55 1019 30.09 848 25.04 6.2 43.2 59 -1.2 29.9
12:00 1019 30.09 848 25.04 6.1 43 59 -1.3 29.7
12:05 1019 30.09 848 25.04 6.2 43.2 59 -1.3 29.7
12:10 1019 30.09 848 25.04 6.3 43.3 59 -1.2 29.9
12:15 1019 30.09 848 25.04 6.3 43.3 58 -1.3 29.7
12:20 1019 30.09 848 25.04 6.4 43.5 58 -1.2 29.9
12:25 1019 30.09 848 25.04 6.6 43.9 58 -1.1 30.1
12:30 1019 30.09 848 25.04 6.8 44.3 58 -0.8 30.5
12:35 1019 30.09 848 25.04 7 44.5 60 -0.3 31.4
12:40 1019 30.09 848 25.04 6.9 44.4 57 -1 30.1
12:45 1019 30.09 848 25.04 7.1 44.7 56 -1 30.2
12:50 1019 30.09 848 25.04 7.1 44.8 57 -0.8 30.5
12:55 1019 30.09 848 25.04 7 44.5 59 -0.5 31
13:00 1019 30.09 848 25.04 6.7 44.1 59 -0.8 30.6
13:05 1019 30.09 848 25.04 6.4 43.5 61 -0.5 31.2
13:10 1018 30.06 848 25.04 5.9 42.6 64 -0.3 31.4
13:15 1018 30.06 848 25.04 5.9 42.6 59 -1.4 29.5
13:20 1018 30.06 848 25.04 6.2 43.1 64 -0 32
13:25 1018 30.06 847 25.01 5.7 42.2 65 -0.3 31.4
13:30 1018 30.06 847 25.01 5.4 41.8 68 0 32.1
13:35 1018 30.06 847 25.01 5.3 41.5 69 -0 32
13:40 1018 30.06 847 25.01 5.3 41.6 68 -0.1 31.8
13:45 1018 30.06 847 25.01 5.5 41.9 67 -0.1 31.9
13:50 1018 30.06 847 25.01 5.5 41.9 66 -0.3 31.5
13:55 1018 30.06 847 25.01 5.6 42 65 -0.6 31
14:00 1018 30.06 847 25.01 5.7 42.3 64 -0.5 31
14:05 1018 30.06 847 25.01 5.9 42.6 63 -0.5 31
14:10 1018 30.06 847 25.01 5.9 42.5 64 -0.4 31.3
14:15 1018 30.06 847 25.01 5.9 42.6 62 -0.9 30.3
14:20 1018 30.06 847 25.01 6.2 43.1 61 -0.8 30.5
14:25 1017 30.03 847 25.01 6.3 43.3 62 -0.5 31.1
14:30 1017 30.03 847 25.01 6.2 43.2 63 -0.3 31.4
14:35 1017 30.03 847 25.01 6.1 43.1 63 -0.4 31.3
14:40 1017 30.03 847 25.01 6.1 43 62 -0.6 30.9
14:45 1017 30.03 847 25.01 6.2 43.2 59 -1.1 30
14:50 1017 30.03 846 24.98 6.7 44.1 55 -1.6 29.1
14:55 1017 30.03 846 24.98 7.2 45 56 -0.9 30.3
15:00 1017 30.03 846 24.98 6.8 44.3 60 -0.4 31.3
15:05 1017 30.03 846 24.98 6.5 43.7 59 -0.9 30.4
15:10 1017 30.03 846 24.98 6.5 43.7 60 -0.7 30.7
15:15 1017 30.03 846 24.98 6.3 43.4 61 -0.6 31
15:20 1017 30.03 846 24.98 6.3 43.3 62 -0.5 31.2
15:25 1017 30.03 846 24.98 6.2 43.1 62 -0.5 31.1
15:30 1017 30.03 846 24.98 6.5 43.7 54 -2 28.4
15:35 1017 30.03 846 24.98 6.9 44.5 57 -1 30.2
15:40 1017 30.03 846 24.98 6.7 44.1 56 -1.4 29.4
15:45 1017 30.03 846 24.98 6.6 43.8 59 -0.9 30.5
15:50 1017 30.03 846 24.98 6.5 43.8 55 -1.8 28.8
15:55 1017 30.03 846 24.98 6.8 44.3 56 -1.2 29.8
16:00 1017 30.03 846 24.98 7 44.5 57 -1 30.1
16:05 1017 30.03 846 24.98 7 44.7 53 -1.8 28.7
16:10 1017 30.03 846 24.98 7.2 45 53 -1.6 29
16:15 1017 30.03 846 24.98 7.1 44.8 53 -1.7 29
16:20 1017 30.03 846 24.98 6.9 44.5 54 -1.7 28.9
16:25 1017 30.03 846 24.98 7.1 44.8 50 -2.7 27.2
16:30 1017 30.03 846 24.98 7.4 45.4 48 -2.8 27
16:35 1017 30.03 846 24.98 7.8 46 46 -3 26.5
16:40 1017 30.03 846 24.98 7.9 46.2 47 -2.8 26.9
16:45 1017 30.03 846 24.98 7.9 46.2 46 -2.9 26.8
16:50 1017 30.03 846 24.98 8 46.3 45 -3.1 26.4
16:55 1017 30.03 846 24.98 8 46.4 46 -2.9 26.8
17:00 1017 30.03 846 24.98 7.9 46.3 46 -2.9 26.8
17:05 1017 30.03 846 24.98 7.9 46.2 47 -2.8 26.9
17:10 1017 30.03 846 24.98 7.7 45.9 48 -2.7 27.2
17:15 1017 30.03 846 24.98 7.6 45.6 47 -3 26.6
17:20 1017 30.03 846 24.98 7.6 45.6 48 -2.7 27.1
17:25 1017 30.03 846 24.98 7.6 45.7 49 -2.5 27.5
17:30 1017 30.03 846 24.98 7.4 45.3 50 -2.5 27.6
17:35 1017 30.03 846 24.98 7.2 45 49 -2.9 26.8
17:40 1017 30.03 846 24.98 7.5 45.4 50 -2.2 28.1
17:45 1017 30.03 846 24.98 7.5 45.5 50 -2.3 27.8
17:50 1017 30.03 846 24.98 7.6 45.7 46 -3.1 26.4
17:55 1017 30.03 846 24.98 7.7 45.9 47 -3 26.6
18:00 1017 30.03 846 24.98 7.7 45.8 47 -2.8 27
18:05 1017 30.03 846 24.98 7.6 45.6 48 -2.7 27.2
18:10 1017 30.03 846 24.98 7.5 45.6 49 -2.4 27.7
18:15 1017 30.03 846 24.98 7.4 45.3 48 -2.9 26.7
18:20 1017 30.03 846 24.98 7.8 46 44 -3.6 25.5
18:25 1017 30.03 846 24.98 8.5 47.2 43 -3.4 26
18:30 1017 30.03 846 24.98 8.6 47.5 42 -3.6 25.6
18:35 1017 30.03 846 24.98 9 48.2 41 -3.5 25.7
18:40 1016 30 846 24.98 9 48.2 41 -3.6 25.6
18:45 1016 30 846 24.98 9.1 48.4 39 -4.1 24.6
18:50 1016 30 846 24.98 9.4 48.9 40 -3.6 25.5
18:55 1016 30 846 24.98 9 48.2 43 -3 26.5
19:00 1016 30 846 24.98 8.7 47.6 41 -3.7 25.3
19:05 1016 30 846 24.98 8.7 47.7 43 -3.1 26.4
19:10 1016 30 845 24.95 8.6 47.4 41 -4 24.9
19:15 1016 30 845 24.95 8.9 48 40 -4 24.7
19:20 1016 30 845 24.95 9.1 48.4 39 -4 24.8
19:25 1016 30 845 24.95 9.1 48.3 42 -3.3 26.1
19:30 1016 30 846 24.98 8.5 47.2 43 -3.4 25.9
19:35 1016 30 846 24.98 8.2 46.7 45 -3.1 26.3
19:40 1016 30 846 24.98 7.9 46.2 45 -3.4 26
19:45 1016 30 845 24.95 7.7 45.9 45 -3.4 26
19:50 1016 30 845 24.95 7.8 46 45 -3.4 25.8
19:55 1016 30 845 24.95 7.8 46 45 -3.4 25.9
20:00 1016 30 846 24.98 7.8 46 45 -3.3 26.1
20:05 1016 30 846 24.98 7.5 45.5 47 -2.9 26.8
20:10 1016 30 845 24.95 7 44.7 49 -2.9 26.8
20:15 1016 30 845 24.95 6.8 44.3 50 -3 26.7
20:20 1016 30 845 24.95 6.7 44 52 -2.5 27.4
20:25 1016 30 845 24.95 6.5 43.7 51 -2.8 27
20:30 1016 30 845 24.95 6.3 43.4 52 -2.7 27.1
20:35 1016 30 845 24.95 6.1 43.1 53 -2.7 27.1
20:40 1016 30 845 24.95 6.1 43 52 -3 26.7
20:45 1016 30 845 24.95 6.2 43.1 51 -3.3 26.1
20:50 1016 30 845 24.95 6.6 43.9 46 -4.3 24.3
20:55 1016 30 845 24.95 7.5 45.4 44 -4 24.9
21:00 1016 30 845 24.95 7.5 45.4 46 -3.4 25.8
21:05 1016 30 845 24.95 7.2 44.9 47 -3.5 25.7
21:10 1016 30 845 24.95 7.3 45.1 41 -5 22.9
21:15 1016 30 845 24.95 8.1 46.6 40 -4.7 23.6
21:20 1016 30 845 24.95 8.4 47 38 -5.2 22.6
21:25 1016 30 845 24.95 8.7 47.6 37 -5.1 22.7
21:30 1016 30 845 24.95 8.9 48 37 -5.2 22.7
21:35 1016 30 845 24.95 8.8 47.8 38 -4.7 23.5
21:40 1016 30 845 24.95 8.5 47.3 40 -4.4 24.1
21:45 1016 30 845 24.95 8.1 46.6 41 -4.3 24.2
21:50 1016 30 845 24.95 7.8 46 41 -4.5 23.9
21:55 1016 30 845 24.95 7.9 46.2 41 -4.5 23.8
22:00 1016 30 845 24.95 7.9 46.1 39 -5.3 22.5
22:05 1016 30 845 24.95 8.4 47 39 -4.9 23.3
22:10 1016 30 845 24.95 7.9 46.2 41 -4.4 24
22:15 1016 30 846 24.98 7.4 45.4 43 -4.3 24.2
22:20 1016 30 846 24.98 7.2 44.9 42 -4.7 23.5
22:25 1016 30 846 24.98 7.1 44.8 43 -4.5 23.9
22:30 1016 30 846 24.98 7 44.6 42 -4.9 23.1
22:35 1016 30 846 24.98 7 44.6 43 -4.7 23.6
22:40 1016 30 846 24.98 6.9 44.5 43 -4.8 23.3
22:45 1016 30 846 24.98 7 44.6 42 -4.9 23.2
22:50 1016 30 845 24.95 7 44.6 42 -5.1 22.9
22:55 1016 30 846 24.98 7.4 45.2 42 -4.8 23.4
23:00 1016 30 846 24.98 7.3 45.2 42 -4.7 23.6
23:05 1016 30 845 24.95 7.2 45 41 -5 23
23:10 1016 30 845 24.95 7.1 44.8 44 -4.4 24
23:15 1016 30 845 24.95 6.9 44.4 44 -4.5 23.9
23:20 1016 30 845 24.95 6.7 44 45 -4.5 23.8
23:25 1016 30 845 24.95 6.6 43.9 44 -4.9 23.2
23:30 1016 30 845 24.95 6.6 43.8 43 -5 23
23:35 1016 30 845 24.95 6.5 43.6 45 -4.7 23.6
23:40 1016 30 845 24.95 6.1 43 45 -4.8 23.3
23:45 1016 30 845 24.95 6 42.7 46 -4.9 23.2
23:50 1016 30 845 24.95 5.8 42.5 46 -4.9 23.3
23:55 1016 30 845 24.95 5.5 42 47 -4.8 23.3
24:00 1016 30 845 24.95 5 41 47 -5.3 22.4